Time,TemperatureF,DewpointF,PressureIn,WindDirection,WindDirectionDegrees,WindSpeedMPH,WindSpeedGustMPH,Humidity,HourlyPrecipIn,Conditions,Clouds,dailyrainin,SolarRadiationWatts/m^2,SoftwareType,DateUTC
2013-08-17 00:09:00,-999.0,-99.9,30.19,NE,49,0.0,-999.0,-999,-99.99,,,0.00,0,weatherlink.com 1.10,2013-08-17 04:09:00,
2013-08-17 00:24:00,-999.0,-99.9,30.20,NE,49,0.0,-999.0,-999,-99.99,,,0.00,0,weatherlink.com 1.10,2013-08-17 04:24:00,
2013-08-17 00:38:00,-999.0,-99.9,30.20,NE,49,0.0,-999.0,-999,-99.99,,,0.00,0,weatherlink.com 1.10,2013-08-17 04:38:00,
2013-08-17 00:53:00,-999.0,-99.9,30.20,NE,49,0.0,-999.0,-999,-99.99,,,0.00,0,weatherlink.com 1.10,2013-08-17 04:53:00,
2013-08-17 01:08:00,-999.0,-99.9,30.21,NE,49,0.0,-999.0,-999,-99.99,,,0.00,0,weatherlink.com 1.10,2013-08-17 05:08:00,
2013-08-17 01:23:00,-999.0,-99.9,30.21,NE,49,0.0,-999.0,-999,-99.99,,,0.00,0,weatherlink.com 1.10,2013-08-17 05:23:00,
2013-08-17 01:39:00,-999.0,-99.9,30.21,NE,49,0.0,-999.0,-999,-99.99,,,0.00,0,weatherlink.com 1.10,2013-08-17 05:39:00,
2013-08-17 01:53:00,-999.0,-99.9,30.21,NE,49,0.0,-999.0,-999,-99.99,,,0.00,0,weatherlink.com 1.10,2013-08-17 05:53:00,
2013-08-17 02:09:00,-999.0,-99.9,30.22,NE,49,0.0,-999.0,-999,-99.99,,,0.00,0,weatherlink.com 1.10,2013-08-17 06:09:00,
2013-08-17 02:24:00,-999.0,-99.9,30.22,NE,49,0.0,-999.0,-999,-99.99,,,0.00,0,weatherlink.com 1.10,2013-08-17 06:24:00,
2013-08-17 02:39:00,-999.0,-99.9,30.22,NE,49,0.0,-999.0,-999,-99.99,,,0.00,0,weatherlink.com 1.10,2013-08-17 06:39:00,
2013-08-17 02:54:00,-999.0,-99.9,30.22,NE,49,0.0,-999.0,-999,-99.99,,,0.00,0,weatherlink.com 1.10,2013-08-17 06:54:00,
2013-08-17 03:09:00,-999.0,-99.9,30.22,NE,49,0.0,-999.0,-999,-99.99,,,0.00,0,weatherlink.com 1.10,2013-08-17 07:09:00,
2013-08-17 03:24:00,-999.0,-99.9,30.23,NE,49,0.0,-999.0,-999,-99.99,,,0.00,0,weatherlink.com 1.10,2013-08-17 07:24:00,
2013-08-17 03:38:00,-999.0,-99.9,30.23,NE,49,0.0,-999.0,-999,-99.99,,,0.00,0,weatherlink.com 1.10,2013-08-17 07:38:00,
2013-08-17 03:54:00,-999.0,-99.9,30.23,NE,49,0.0,-999.0,-999,-99.99,,,0.00,0,weatherlink.com 1.10,2013-08-17 07:54:00,
2013-08-17 04:09:00,-999.0,-99.9,30.23,NE,49,0.0,-999.0,-999,-99.99,,,0.00,0,weatherlink.com 1.10,2013-08-17 08:09:00,
2013-08-17 04:24:00,-999.0,-99.9,30.23,NE,49,0.0,-999.0,-999,-99.99,,,0.00,0,weatherlink.com 1.10,2013-08-17 08:24:00,
2013-08-17 04:39:00,-999.0,-99.9,30.24,NE,49,0.0,-999.0,-999,-99.99,,,0.00,0,weatherlink.com 1.10,2013-08-17 08:39:00,
2013-08-17 04:54:00,-999.0,-99.9,30.24,NE,49,0.0,-999.0,-999,-99.99,,,0.00,0,weatherlink.com 1.10,2013-08-17 08:54:00,
2013-08-17 05:09:00,-999.0,-99.9,30.24,NE,49,0.0,-999.0,-999,-99.99,,,0.00,0,weatherlink.com 1.10,2013-08-17 09:09:00,
2013-08-17 05:24:00,-999.0,-99.9,30.25,NE,49,0.0,-999.0,-999,-99.99,,,0.00,0,weatherlink.com 1.10,2013-08-17 09:24:00,
2013-08-17 05:39:00,-999.0,-99.9,30.25,NE,49,0.0,-999.0,-999,-99.99,,,0.00,0,weatherlink.com 1.10,2013-08-17 09:39:00,
2013-08-17 05:54:00,-999.0,-99.9,30.25,NE,49,0.0,-999.0,-999,-99.99,,,0.00,0,weatherlink.com 1.10,2013-08-17 09:54:00,
2013-08-17 06:09:00,-999.0,-99.9,30.25,NE,49,0.0,-999.0,-999,-99.99,,,0.00,0,weatherlink.com 1.10,2013-08-17 10:09:00,
2013-08-17 06:23:00,-999.0,-99.9,30.25,NE,49,0.0,-999.0,-999,-99.99,,,0.00,0,weatherlink.com 1.10,2013-08-17 10:23:00,
2013-08-17 06:38:00,-999.0,-99.9,30.26,NE,49,0.0,-999.0,-999,-99.99,,,0.00,11,weatherlink.com 1.10,2013-08-17 10:38:00,
2013-08-17 06:54:00,-90.0,-99.9,30.27,NE,49,0.0,-999.0,-999,-99.99,,,0.00,33,weatherlink.com 1.10,2013-08-17 10:54:00,
2013-08-17 07:08:00,-90.0,-99.9,30.27,NE,49,0.0,-999.0,-999,-99.99,,,0.00,58,weatherlink.com 1.10,2013-08-17 11:08:00,
2013-08-17 07:24:00,-90.0,-99.9,30.28,NE,49,0.0,-999.0,-999,-99.99,,,0.00,95,weatherlink.com 1.10,2013-08-17 11:24:00,
2013-08-17 07:39:00,-90.0,-99.9,30.28,NE,49,0.0,-999.0,-999,-99.99,,,0.00,121,weatherlink.com 1.10,2013-08-17 11:39:00,
2013-08-17 07:54:00,-90.0,-99.9,30.28,NE,49,0.0,-999.0,-999,-99.99,,,0.00,172,weatherlink.com 1.10,2013-08-17 11:54:00,
2013-08-17 08:09:00,-90.0,-99.9,30.28,NE,49,0.0,-999.0,-999,-99.99,,,0.00,223,weatherlink.com 1.10,2013-08-17 12:09:00,
2013-08-17 08:23:00,-90.0,-99.9,30.28,NE,49,0.0,-999.0,-999,-99.99,,,0.00,267,weatherlink.com 1.10,2013-08-17 12:23:00,
2013-08-17 08:38:00,-90.0,-99.9,30.28,NE,49,0.0,-999.0,-999,-99.99,,,0.00,329,weatherlink.com 1.10,2013-08-17 12:38:00,
2013-08-17 08:54:00,-90.0,-99.9,30.28,NE,49,0.0,-999.0,-999,-99.99,,,0.00,366,weatherlink.com 1.10,2013-08-17 12:54:00,
2013-08-17 09:09:00,-90.0,-99.9,30.29,NE,47,0.0,-999.0,-999,-99.99,,,0.00,392,weatherlink.com 1.10,2013-08-17 13:09:00,
2013-08-17 09:24:00,70.6,37.0,30.29,NE,48,0.0,-999.0,29,-99.99,,,0.00,436,weatherlink.com 1.10,2013-08-17 13:24:00,
2013-08-17 09:39:00,72.3,43.0,30.29,NE,42,0.0,-999.0,35,-99.99,,,0.00,483,weatherlink.com 1.10,2013-08-17 13:39:00,
2013-08-17 09:54:00,73.5,51.0,30.30,WSW,248,0.0,-999.0,45,-99.99,,,0.00,508,weatherlink.com 1.10,2013-08-17 13:54:00,
2013-08-17 10:09:00,75.6,54.0,30.30,WSW,249,0.0,-999.0,47,-99.99,,,0.00,575,weatherlink.com 1.10,2013-08-17 14:09:00,
2013-08-17 10:24:00,76.1,56.0,30.30,WSW,253,0.0,-999.0,50,-99.99,,,0.00,610,weatherlink.com 1.10,2013-08-17 14:24:00,
2013-08-17 10:39:00,77.3,57.0,30.30,SSW,205,0.0,-999.0,50,-99.99,,,0.00,606,weatherlink.com 1.10,2013-08-17 14:39:00,
2013-08-17 10:53:00,78.7,58.0,30.30,SW,229,0.0,-999.0,49,-99.99,,,0.00,677,weatherlink.com 1.10,2013-08-17 14:53:00,
2013-08-17 11:09:00,78.7,58.0,30.30,SSW,202,0.0,-999.0,50,-99.99,,,0.00,701,weatherlink.com 1.10,2013-08-17 15:09:00,
2013-08-17 11:24:00,80.8,60.0,30.29,South,171,0.0,-999.0,49,-99.99,,,0.00,751,weatherlink.com 1.10,2013-08-17 15:24:00,
2013-08-17 11:38:00,79.8,58.0,30.29,South,188,2.0,-999.0,48,-99.99,,,0.00,780,weatherlink.com 1.10,2013-08-17 15:38:00,
2013-08-17 11:54:00,79.9,58.0,30.30,SSE,152,1.0,-999.0,48,-99.99,,,0.00,745,weatherlink.com 1.10,2013-08-17 15:54:00,
2013-08-17 12:09:00,81.4,59.0,30.29,ENE,78,0.0,-999.0,47,-99.99,,,0.00,202,weatherlink.com 1.10,2013-08-17 16:09:00,
2013-08-17 12:24:00,80.3,59.0,30.28,SW,221,3.0,-999.0,49,-99.99,,,0.00,879,weatherlink.com 1.10,2013-08-17 16:24:00,
2013-08-17 12:39:00,81.1,58.0,30.28,SSE,164,4.0,-999.0,46,-99.99,,,0.00,895,weatherlink.com 1.10,2013-08-17 16:39:00,
2013-08-17 12:54:00,79.8,58.0,30.27,East,98,3.0,-999.0,48,-99.99,,,0.00,756,weatherlink.com 1.10,2013-08-17 16:54:00,
2013-08-17 13:09:00,80.7,59.0,30.27,ESE,123,2.0,-999.0,47,-99.99,,,0.00,325,weatherlink.com 1.10,2013-08-17 17:09:00,
2013-08-17 13:24:00,81.6,60.0,30.27,NNE,29,0.0,-999.0,48,-99.99,,,0.00,223,weatherlink.com 1.10,2013-08-17 17:24:00,
2013-08-17 13:39:00,79.8,58.0,30.27,SSE,166,2.0,-999.0,48,-99.99,,,0.00,932,weatherlink.com 1.10,2013-08-17 17:39:00,
2013-08-17 13:54:00,82.7,60.0,30.27,ENE,72,4.0,-999.0,46,-99.99,,,0.00,691,weatherlink.com 1.10,2013-08-17 17:54:00,
2013-08-17 14:09:00,79.5,58.0,30.26,ENE,60,2.0,-999.0,48,-99.99,,,0.00,751,weatherlink.com 1.10,2013-08-17 18:09:00,
2013-08-17 14:24:00,80.0,59.0,30.26,NE,48,0.0,-999.0,48,-99.99,,,0.00,278,weatherlink.com 1.10,2013-08-17 18:24:00,
2013-08-17 14:39:00,81.7,58.0,30.25,SSE,150,4.0,-999.0,45,-99.99,,,0.00,722,weatherlink.com 1.10,2013-08-17 18:39:00,
2013-08-17 14:54:00,80.3,57.0,30.25,ENE,61,0.0,-999.0,45,-99.99,,,0.00,819,weatherlink.com 1.10,2013-08-17 18:54:00,
2013-08-17 15:09:00,81.1,60.0,30.25,ENE,74,4.0,-999.0,48,-99.99,,,0.00,320,weatherlink.com 1.10,2013-08-17 19:09:00,
2013-08-17 15:24:00,80.7,58.0,30.25,East,99,1.0,-999.0,46,-99.99,,,0.00,798,weatherlink.com 1.10,2013-08-17 19:24:00,
2013-08-17 15:39:00,81.7,59.0,30.25,ENE,77,4.0,-999.0,46,-99.99,,,0.00,816,weatherlink.com 1.10,2013-08-17 19:39:00,
2013-08-17 15:54:00,80.9,60.0,30.25,ENE,61,3.0,-999.0,49,-99.99,,,0.00,424,weatherlink.com 1.10,2013-08-17 19:54:00,
2013-08-17 16:09:00,81.6,60.0,30.25,East,84,3.0,-999.0,48,-99.99,,,0.00,670,weatherlink.com 1.10,2013-08-17 20:09:00,
2013-08-17 16:24:00,80.3,60.0,30.25,East,86,2.0,-999.0,50,-99.99,,,0.00,192,weatherlink.com 1.10,2013-08-17 20:24:00,
2013-08-17 16:39:00,79.9,60.0,30.25,NE,45,3.0,-999.0,50,-99.99,,,0.00,628,weatherlink.com 1.10,2013-08-17 20:39:00,
2013-08-17 16:54:00,79.3,60.0,30.25,SSE,150,4.0,-999.0,52,-99.99,,,0.00,497,weatherlink.com 1.10,2013-08-17 20:54:00,
2013-08-17 17:09:00,81.2,61.0,30.25,SSE,161,4.0,-999.0,50,-99.99,,,0.00,438,weatherlink.com 1.10,2013-08-17 21:09:00,
2013-08-17 17:24:00,80.2,60.0,30.25,ENE,62,4.0,-999.0,50,-99.99,,,0.00,411,weatherlink.com 1.10,2013-08-17 21:24:00,
2013-08-17 17:39:00,80.5,60.0,30.24,ENE,60,1.0,-999.0,49,-99.99,,,0.00,404,weatherlink.com 1.10,2013-08-17 21:39:00,
2013-08-17 17:54:00,79.8,62.0,30.24,ENE,78,4.0,-999.0,54,-99.99,,,0.00,322,weatherlink.com 1.10,2013-08-17 21:54:00,
2013-08-17 18:09:00,78.3,61.0,30.24,ENE,64,6.0,-999.0,56,-99.99,,,0.00,301,weatherlink.com 1.10,2013-08-17 22:09:00,
2013-08-17 18:24:00,78.0,60.0,30.24,NE,46,3.0,-999.0,55,-99.99,,,0.00,253,weatherlink.com 1.10,2013-08-17 22:24:00,
2013-08-17 18:39:00,77.5,59.0,30.24,ENE,63,4.0,-999.0,54,-99.99,,,0.00,209,weatherlink.com 1.10,2013-08-17 22:39:00,
2013-08-17 18:54:00,76.8,59.0,30.24,ENE,60,3.0,-999.0,55,-99.99,,,0.00,42,weatherlink.com 1.10,2013-08-17 22:54:00,
2013-08-17 19:09:00,76.4,59.0,30.24,NE,56,7.0,-999.0,55,-99.99,,,0.00,35,weatherlink.com 1.10,2013-08-17 23:09:00,
2013-08-17 19:24:00,76.0,59.0,30.24,NE,50,5.0,-999.0,55,-99.99,,,0.00,30,weatherlink.com 1.10,2013-08-17 23:24:00,
2013-08-17 19:39:00,75.3,58.0,30.24,ENE,67,3.0,-999.0,56,-99.99,,,0.00,21,weatherlink.com 1.10,2013-08-17 23:39:00,
2013-08-17 19:54:00,74.0,56.0,30.23,NE,44,1.0,-999.0,54,-99.99,,,0.00,12,weatherlink.com 1.10,2013-08-17 23:54:00,
2013-08-17 20:09:00,72.9,54.0,30.23,NE,42,4.0,-999.0,51,-99.99,,,0.00,0,weatherlink.com 1.10,2013-08-18 00:09:00,
2013-08-17 20:24:00,72.1,53.0,30.23,ENE,58,2.0,-999.0,51,-99.99,,,0.00,0,weatherlink.com 1.10,2013-08-18 00:24:00,
2013-08-17 20:39:00,71.7,52.0,30.23,ENE,61,3.0,-999.0,51,-99.99,,,0.00,0,weatherlink.com 1.10,2013-08-18 00:39:00,
2013-08-17 20:54:00,70.6,49.0,30.24,ENE,69,0.0,-999.0,47,-99.99,,,0.00,0,weatherlink.com 1.10,2013-08-18 00:54:00,
2013-08-17 21:09:00,69.6,41.0,30.24,ENE,69,0.0,-999.0,35,-99.99,,,0.00,0,weatherlink.com 1.10,2013-08-18 01:09:00,
2013-08-17 21:24:00,69.2,36.0,30.25,ENE,69,0.0,-999.0,29,-99.99,,,0.00,0,weatherlink.com 1.10,2013-08-18 01:24:00,
2013-08-17 21:39:00,68.7,31.0,30.25,ENE,69,0.0,-999.0,25,-99.99,,,0.00,0,weatherlink.com 1.10,2013-08-18 01:39:00,
2013-08-17 21:54:00,68.9,31.0,30.25,ENE,75,1.0,-999.0,24,-99.99,,,0.00,0,weatherlink.com 1.10,2013-08-18 01:54:00,
2013-08-17 22:09:00,68.7,30.0,30.25,SE,132,0.0,-999.0,24,-99.99,,,0.00,0,weatherlink.com 1.10,2013-08-18 02:09:00,
2013-08-17 22:24:00,68.2,29.0,30.25,SE,132,0.0,-999.0,23,-99.99,,,0.00,0,weatherlink.com 1.10,2013-08-18 02:24:00,
2013-08-17 22:39:00,68.0,28.0,30.25,SE,132,0.0,-999.0,22,-99.99,,,0.00,0,weatherlink.com 1.10,2013-08-18 02:39:00,
2013-08-17 22:54:00,67.4,27.0,30.25,SE,132,0.0,-999.0,22,-99.99,,,0.00,0,weatherlink.com 1.10,2013-08-18 02:54:00,
2013-08-17 23:09:00,66.9,27.0,30.25,SE,132,0.0,-999.0,22,-99.99,,,0.00,0,weatherlink.com 1.10,2013-08-18 03:09:00,
2013-08-17 23:24:00,66.7,27.0,30.25,SE,132,0.0,-999.0,22,-99.99,,,0.00,0,weatherlink.com 1.10,2013-08-18 03:24:00,
2013-08-17 23:39:00,66.7,27.0,30.25,SE,130,0.0,-999.0,22,-99.99,,,0.00,0,weatherlink.com 1.10,2013-08-18 03:39:00,
2013-08-17 23:54:00,66.5,26.0,30.25,SE,130,0.0,-999.0,22,-99.99,,,0.00,0,weatherlink.com 1.10,2013-08-18 03:54:00,